sensor_id;sensor_type;location;lat;lon;timestamp;P1;durP1;ratioP1;P2;durP2;ratioP2
19671;SDS011;9983;51.114;13.788;2023-09-19T00:03:28;4.95;;;2.28;;
19671;SDS011;9983;51.114;13.788;2023-09-19T00:08:29;4.03;;;2.30;;
19671;SDS011;9983;51.114;13.788;2023-09-19T00:13:29;2.78;;;2.47;;
19671;SDS011;9983;51.114;13.788;2023-09-19T00:18:30;2.35;;;2.13;;
19671;SDS011;9983;51.114;13.788;2023-09-19T00:23:32;2.58;;;2.03;;
19671;SDS011;9983;51.114;13.788;2023-09-19T00:28:33;3.83;;;2.03;;
19671;SDS011;9983;51.114;13.788;2023-09-19T00:33:33;2.88;;;2.20;;
19671;SDS011;9983;51.114;13.788;2023-09-19T00:38:34;2.47;;;2.20;;
19671;SDS011;9983;51.114;13.788;2023-09-19T00:43:34;4.97;;;2.10;;
19671;SDS011;9983;51.114;13.788;2023-09-19T00:48:39;2.37;;;2.17;;
19671;SDS011;9983;51.114;13.788;2023-09-19T00:53:43;3.40;;;2.65;;
19671;SDS011;9983;51.114;13.788;2023-09-19T00:58:46;5.50;;;2.70;;
19671;SDS011;9983;51.114;13.788;2023-09-19T01:03:47;3.40;;;2.58;;
19671;SDS011;9983;51.114;13.788;2023-09-19T01:08:47;4.15;;;2.33;;
19671;SDS011;9983;51.114;13.788;2023-09-19T01:24:49;3.92;;;2.80;;
19671;SDS011;9983;51.114;13.788;2023-09-19T01:30:13;3.13;;;2.63;;
19671;SDS011;9983;51.114;13.788;2023-09-19T01:35:17;5.15;;;2.63;;
19671;SDS011;9983;51.114;13.788;2023-09-19T01:40:18;2.60;;;2.40;;
19671;SDS011;9983;51.114;13.788;2023-09-19T01:45:33;3.00;;;2.42;;
19671;SDS011;9983;51.114;13.788;2023-09-19T01:50:52;6.22;;;2.42;;
19671;SDS011;9983;51.114;13.788;2023-09-19T01:55:58;3.78;;;2.30;;
19671;SDS011;9983;51.114;13.788;2023-09-19T02:01:01;4.25;;;3.15;;
19671;SDS011;9983;51.114;13.788;2023-09-19T02:06:05;2.58;;;2.38;;
19671;SDS011;9983;51.114;13.788;2023-09-19T02:11:11;3.50;;;3.20;;
19671;SDS011;9983;51.114;13.788;2023-09-19T02:16:13;3.10;;;2.63;;
19671;SDS011;9983;51.114;13.788;2023-09-19T02:21:17;5.53;;;4.00;;
19671;SDS011;9983;51.114;13.788;2023-09-19T02:26:17;4.85;;;2.60;;
19671;SDS011;9983;51.114;13.788;2023-09-19T02:31:18;3.03;;;2.83;;
19671;SDS011;9983;51.114;13.788;2023-09-19T02:36:19;3.67;;;2.60;;
19671;SDS011;9983;51.114;13.788;2023-09-19T02:41:19;8.70;;;2.97;;
19671;SDS011;9983;51.114;13.788;2023-09-19T02:46:19;3.92;;;3.28;;
19671;SDS011;9983;51.114;13.788;2023-09-19T02:51:20;5.13;;;3.00;;
19671;SDS011;9983;51.114;13.788;2023-09-19T02:56:21;4.53;;;2.47;;
19671;SDS011;9983;51.114;13.788;2023-09-19T03:01:22;4.50;;;2.85;;
19671;SDS011;9983;51.114;13.788;2023-09-19T03:06:22;2.92;;;2.67;;
19671;SDS011;9983;51.114;13.788;2023-09-19T03:11:23;5.20;;;3.10;;
19671;SDS011;9983;51.114;13.788;2023-09-19T03:16:24;3.65;;;2.47;;
19671;SDS011;9983;51.114;13.788;2023-09-19T03:21:25;6.93;;;2.72;;
19671;SDS011;9983;51.114;13.788;2023-09-19T03:26:25;3.20;;;2.78;;
19671;SDS011;9983;51.114;13.788;2023-09-19T03:31:26;3.38;;;2.58;;
19671;SDS011;9983;51.114;13.788;2023-09-19T03:36:28;4.32;;;3.00;;
19671;SDS011;9983;51.114;13.788;2023-09-19T03:41:29;2.13;;;1.90;;
19671;SDS011;9983;51.114;13.788;2023-09-19T03:46:29;2.83;;;1.70;;
19671;SDS011;9983;51.114;13.788;2023-09-19T03:51:30;3.28;;;2.10;;
19671;SDS011;9983;51.114;13.788;2023-09-19T03:56:31;3.38;;;1.70;;
19671;SDS011;9983;51.114;13.788;2023-09-19T04:01:31;1.73;;;1.63;;
19671;SDS011;9983;51.114;13.788;2023-09-19T04:06:34;1.50;;;1.27;;
19671;SDS011;9983;51.114;13.788;2023-09-19T04:11:35;2.15;;;1.63;;
19671;SDS011;9983;51.114;13.788;2023-09-19T04:16:35;1.63;;;1.52;;
19671;SDS011;9983;51.114;13.788;2023-09-19T04:21:35;2.90;;;2.15;;
19671;SDS011;9983;51.114;13.788;2023-09-19T04:26:35;1.45;;;1.30;;
19671;SDS011;9983;51.114;13.788;2023-09-19T04:31:36;2.10;;;1.60;;
19671;SDS011;9983;51.114;13.788;2023-09-19T04:36:37;1.95;;;1.60;;
19671;SDS011;9983;51.114;13.788;2023-09-19T04:41:38;3.00;;;1.60;;
19671;SDS011;9983;51.114;13.788;2023-09-19T04:46:40;3.15;;;1.58;;
19671;SDS011;9983;51.114;13.788;2023-09-19T04:51:41;1.92;;;1.20;;
19671;SDS011;9983;51.114;13.788;2023-09-19T04:56:42;2.33;;;1.60;;
19671;SDS011;9983;51.114;13.788;2023-09-19T05:01:42;2.47;;;1.40;;
19671;SDS011;9983;51.114;13.788;2023-09-19T05:06:43;2.88;;;1.60;;
19671;SDS011;9983;51.114;13.788;2023-09-19T05:11:43;2.05;;;1.60;;
19671;SDS011;9983;51.114;13.788;2023-09-19T05:16:43;6.35;;;1.92;;
19671;SDS011;9983;51.114;13.788;2023-09-19T05:21:44;1.85;;;1.40;;
19671;SDS011;9983;51.114;13.788;2023-09-19T05:26:44;1.60;;;1.50;;
19671;SDS011;9983;51.114;13.788;2023-09-19T05:31:45;1.83;;;1.50;;
19671;SDS011;9983;51.114;13.788;2023-09-19T05:36:45;2.72;;;1.50;;
19671;SDS011;9983;51.114;13.788;2023-09-19T05:41:46;2.83;;;1.70;;
19671;SDS011;9983;51.114;13.788;2023-09-19T05:46:47;1.80;;;1.70;;
19671;SDS011;9983;51.114;13.788;2023-09-19T05:51:48;2.88;;;1.90;;
19671;SDS011;9983;51.114;13.788;2023-09-19T05:56:48;3.55;;;1.98;;
19671;SDS011;9983;51.114;13.788;2023-09-19T06:01:48;1.65;;;1.55;;
19671;SDS011;9983;51.114;13.788;2023-09-19T06:06:49;1.77;;;1.60;;
19671;SDS011;9983;51.114;13.788;2023-09-19T06:11:49;1.73;;;1.63;;
19671;SDS011;9983;51.114;13.788;2023-09-19T06:16:49;2.25;;;1.77;;
19671;SDS011;9983;51.114;13.788;2023-09-19T06:21:50;2.15;;;1.70;;
19671;SDS011;9983;51.114;13.788;2023-09-19T06:26:50;5.47;;;2.20;;
19671;SDS011;9983;51.114;13.788;2023-09-19T06:31:52;1.63;;;1.52;;
19671;SDS011;9983;51.114;13.788;2023-09-19T06:36:52;3.20;;;1.88;;
19671;SDS011;9983;51.114;13.788;2023-09-19T06:41:54;2.28;;;1.60;;
19671;SDS011;9983;51.114;13.788;2023-09-19T06:46:55;3.25;;;1.48;;
19671;SDS011;9983;51.114;13.788;2023-09-19T06:51:55;3.25;;;1.95;;
19671;SDS011;9983;51.114;13.788;2023-09-19T06:56:57;2.20;;;1.83;;
19671;SDS011;9983;51.114;13.788;2023-09-19T07:01:58;2.88;;;1.38;;
19671;SDS011;9983;51.114;13.788;2023-09-19T07:06:59;1.73;;;1.63;;
19671;SDS011;9983;51.114;13.788;2023-09-19T07:11:59;1.42;;;1.30;;
19671;SDS011;9983;51.114;13.788;2023-09-19T07:17:00;1.73;;;1.30;;
19671;SDS011;9983;51.114;13.788;2023-09-19T07:22:01;1.52;;;1.42;;
19671;SDS011;9983;51.114;13.788;2023-09-19T07:27:02;2.88;;;1.42;;
19671;SDS011;9983;51.114;13.788;2023-09-19T07:32:02;2.57;;;1.50;;
19671;SDS011;9983;51.114;13.788;2023-09-19T07:37:03;1.60;;;1.40;;
19671;SDS011;9983;51.114;13.788;2023-09-19T07:42:03;4.90;;;1.35;;
19671;SDS011;9983;51.114;13.788;2023-09-19T07:47:04;2.20;;;1.35;;
19671;SDS011;9983;51.114;13.788;2023-09-19T07:52:04;2.00;;;1.23;;
19671;SDS011;9983;51.114;13.788;2023-09-19T07:57:05;3.83;;;1.15;;
19671;SDS011;9983;51.114;13.788;2023-09-19T08:02:05;2.70;;;1.50;;
19671;SDS011;9983;51.114;13.788;2023-09-19T08:07:05;3.43;;;1.10;;
19671;SDS011;9983;51.114;13.788;2023-09-19T08:12:06;1.50;;;0.90;;
19671;SDS011;9983;51.114;13.788;2023-09-19T08:17:10;1.02;;;0.90;;
19671;SDS011;9983;51.114;13.788;2023-09-19T08:22:10;1.37;;;0.80;;
19671;SDS011;9983;51.114;13.788;2023-09-19T08:27:10;1.75;;;1.10;;
19671;SDS011;9983;51.114;13.788;2023-09-19T08:32:12;1.30;;;1.20;;
19671;SDS011;9983;51.114;13.788;2023-09-19T08:37:12;1.20;;;1.10;;
19671;SDS011;9983;51.114;13.788;2023-09-19T08:42:12;1.42;;;1.13;;
19671;SDS011;9983;51.114;13.788;2023-09-19T08:47:14;0.88;;;0.85;;
19671;SDS011;9983;51.114;13.788;2023-09-19T08:52:28;2.35;;;1.13;;
19671;SDS011;9983;51.114;13.788;2023-09-19T08:57:41;3.30;;;1.10;;
19671;SDS011;9983;51.114;13.788;2023-09-19T09:02:48;1.75;;;1.30;;
19671;SDS011;9983;51.114;13.788;2023-09-19T09:07:50;1.08;;;0.98;;
19671;SDS011;9983;51.114;13.788;2023-09-19T09:12:52;1.08;;;0.93;;
19671;SDS011;9983;51.114;13.788;2023-09-19T09:17:55;3.80;;;1.20;;
19671;SDS011;9983;51.114;13.788;2023-09-19T09:22:57;1.27;;;0.73;;
19671;SDS011;9983;51.114;13.788;2023-09-19T09:28:00;1.52;;;1.05;;
19671;SDS011;9983;51.114;13.788;2023-09-19T09:33:08;1.73;;;0.88;;
19671;SDS011;9983;51.114;13.788;2023-09-19T09:38:10;1.20;;;1.10;;
19671;SDS011;9983;51.114;13.788;2023-09-19T09:43:24;0.80;;;0.80;;
19671;SDS011;9983;51.114;13.788;2023-09-19T09:48:36;2.78;;;1.10;;
19671;SDS011;9983;51.114;13.788;2023-09-19T09:53:39;1.35;;;0.90;;
19671;SDS011;9983;51.114;13.788;2023-09-19T09:58:57;1.15;;;1.15;;
19671;SDS011;9983;51.114;13.788;2023-09-19T10:03:59;1.90;;;0.95;;
19671;SDS011;9983;51.114;13.788;2023-09-19T10:09:04;1.02;;;0.90;;
19671;SDS011;9983;51.114;13.788;2023-09-19T10:14:12;1.25;;;1.08;;
19671;SDS011;9983;51.114;13.788;2023-09-19T10:19:15;2.30;;;0.90;;
19671;SDS011;9983;51.114;13.788;2023-09-19T10:24:36;0.90;;;0.90;;
19671;SDS011;9983;51.114;13.788;2023-09-19T10:29:39;1.60;;;1.00;;
19671;SDS011;9983;51.114;13.788;2023-09-19T10:34:40;1.02;;;1.00;;
19671;SDS011;9983;51.114;13.788;2023-09-19T10:39:46;5.20;;;0.93;;
19671;SDS011;9983;51.114;13.788;2023-09-19T10:44:48;1.02;;;1.00;;
19671;SDS011;9983;51.114;13.788;2023-09-19T10:49:53;2.63;;;1.10;;
19671;SDS011;9983;51.114;13.788;2023-09-19T10:54:55;0.98;;;0.98;;
19671;SDS011;9983;51.114;13.788;2023-09-19T11:05:22;1.63;;;1.17;;
19671;SDS011;9983;51.114;13.788;2023-09-19T11:10:43;1.40;;;1.07;;
19671;SDS011;9983;51.114;13.788;2023-09-19T11:26:40;1.95;;;1.20;;
19671;SDS011;9983;51.114;13.788;2023-09-19T11:31:47;1.63;;;1.52;;
19671;SDS011;9983;51.114;13.788;2023-09-19T11:36:49;1.23;;;1.13;;
19671;SDS011;9983;51.114;13.788;2023-09-19T11:41:50;1.70;;;1.30;;
19671;SDS011;9983;51.114;13.788;2023-09-19T11:46:56;1.60;;;1.50;;
19671;SDS011;9983;51.114;13.788;2023-09-19T11:51:59;1.35;;;1.25;;
19671;SDS011;9983;51.114;13.788;2023-09-19T11:57:08;2.85;;;1.30;;
19671;SDS011;9983;51.114;13.788;2023-09-19T12:02:09;1.52;;;1.30;;
19671;SDS011;9983;51.114;13.788;2023-09-19T12:07:18;1.33;;;1.23;;
19671;SDS011;9983;51.114;13.788;2023-09-19T12:12:19;1.88;;;1.38;;
19671;SDS011;9983;51.114;13.788;2023-09-19T12:17:36;2.80;;;2.20;;
19671;SDS011;9983;51.114;13.788;2023-09-19T12:22:42;1.48;;;1.38;;
19671;SDS011;9983;51.114;13.788;2023-09-19T12:27:44;2.13;;;1.20;;
19671;SDS011;9983;51.114;13.788;2023-09-19T12:32:53;1.50;;;1.40;;
19671;SDS011;9983;51.114;13.788;2023-09-19T12:37:54;1.98;;;1.15;;
19671;SDS011;9983;51.114;13.788;2023-09-19T12:42:55;1.52;;;1.42;;
19671;SDS011;9983;51.114;13.788;2023-09-19T12:53:27;1.40;;;1.30;;
19671;SDS011;9983;51.114;13.788;2023-09-19T12:58:30;2.35;;;1.45;;
19671;SDS011;9983;51.114;13.788;2023-09-19T13:03:32;1.77;;;1.20;;
19671;SDS011;9983;51.114;13.788;2023-09-19T13:08:35;2.17;;;1.50;;
19671;SDS011;9983;51.114;13.788;2023-09-19T13:13:39;1.20;;;1.10;;
19671;SDS011;9983;51.114;13.788;2023-09-19T13:19:11;1.50;;;1.20;;
19671;SDS011;9983;51.114;13.788;2023-09-19T13:24:22;1.50;;;1.40;;
19671;SDS011;9983;51.114;13.788;2023-09-19T13:29:25;3.80;;;1.20;;
19671;SDS011;9983;51.114;13.788;2023-09-19T13:34:26;1.17;;;1.15;;
19671;SDS011;9983;51.114;13.788;2023-09-19T13:39:26;2.85;;;1.40;;
19671;SDS011;9983;51.114;13.788;2023-09-19T13:44:26;1.35;;;1.23;;
19671;SDS011;9983;51.114;13.788;2023-09-19T13:49:29;1.95;;;1.30;;
19671;SDS011;9983;51.114;13.788;2023-09-19T13:54:31;2.55;;;1.10;;
19671;SDS011;9983;51.114;13.788;2023-09-19T13:59:32;1.40;;;1.30;;
19671;SDS011;9983;51.114;13.788;2023-09-19T14:04:32;5.22;;;1.75;;
19671;SDS011;9983;51.114;13.788;2023-09-19T14:09:34;1.25;;;1.17;;
19671;SDS011;9983;51.114;13.788;2023-09-19T14:14:34;2.50;;;1.50;;
19671;SDS011;9983;51.114;13.788;2023-09-19T14:19:35;4.45;;;1.52;;
19671;SDS011;9983;51.114;13.788;2023-09-19T14:24:36;2.20;;;1.30;;
19671;SDS011;9983;51.114;13.788;2023-09-19T14:29:37;1.88;;;1.60;;
19671;SDS011;9983;51.114;13.788;2023-09-19T14:34:37;2.45;;;1.35;;
19671;SDS011;9983;51.114;13.788;2023-09-19T14:39:42;3.13;;;1.40;;
19671;SDS011;9983;51.114;13.788;2023-09-19T14:44:45;1.85;;;1.75;;
19671;SDS011;9983;51.114;13.788;2023-09-19T14:49:47;1.80;;;1.60;;
19671;SDS011;9983;51.114;13.788;2023-09-19T14:54:47;2.10;;;1.73;;
19671;SDS011;9983;51.114;13.788;2023-09-19T14:59:47;1.30;;;1.30;;
19671;SDS011;9983;51.114;13.788;2023-09-19T15:04:48;1.80;;;1.50;;
19671;SDS011;9983;51.114;13.788;2023-09-19T15:09:48;1.70;;;1.60;;
19671;SDS011;9983;51.114;13.788;2023-09-19T15:14:48;1.80;;;1.70;;
19671;SDS011;9983;51.114;13.788;2023-09-19T15:19:49;1.70;;;1.60;;
19671;SDS011;9983;51.114;13.788;2023-09-19T15:24:50;2.22;;;1.60;;
19671;SDS011;9983;51.114;13.788;2023-09-19T15:29:50;1.80;;;1.70;;
19671;SDS011;9983;51.114;13.788;2023-09-19T15:34:50;3.72;;;1.80;;
19671;SDS011;9983;51.114;13.788;2023-09-19T15:39:50;2.03;;;1.92;;
19671;SDS011;9983;51.114;13.788;2023-09-19T15:44:51;1.80;;;1.70;;
19671;SDS011;9983;51.114;13.788;2023-09-19T15:49:52;2.23;;;2.00;;
19671;SDS011;9983;51.114;13.788;2023-09-19T15:54:52;2.17;;;2.00;;
19671;SDS011;9983;51.114;13.788;2023-09-19T15:59:52;1.88;;;1.75;;
19671;SDS011;9983;51.114;13.788;2023-09-19T16:04:54;1.90;;;1.80;;
19671;SDS011;9983;51.114;13.788;2023-09-19T16:09:54;2.63;;;1.77;;
19671;SDS011;9983;51.114;13.788;2023-09-19T16:14:55;2.67;;;1.90;;
19671;SDS011;9983;51.114;13.788;2023-09-19T16:19:56;1.80;;;1.70;;
19671;SDS011;9983;51.114;13.788;2023-09-19T16:24:56;1.67;;;1.52;;
19671;SDS011;9983;51.114;13.788;2023-09-19T16:29:56;2.00;;;1.73;;
19671;SDS011;9983;51.114;13.788;2023-09-19T16:34:56;2.35;;;1.83;;
19671;SDS011;9983;51.114;13.788;2023-09-19T16:39:57;2.47;;;2.00;;
19671;SDS011;9983;51.114;13.788;2023-09-19T16:44:57;1.80;;;1.70;;
19671;SDS011;9983;51.114;13.788;2023-09-19T16:49:58;2.25;;;1.75;;
19671;SDS011;9983;51.114;13.788;2023-09-19T16:54:58;2.25;;;1.95;;
19671;SDS011;9983;51.114;13.788;2023-09-19T16:59:58;2.45;;;1.98;;
19671;SDS011;9983;51.114;13.788;2023-09-19T17:04:59;2.17;;;1.83;;
19671;SDS011;9983;51.114;13.788;2023-09-19T17:09:59;2.33;;;2.13;;
19671;SDS011;9983;51.114;13.788;2023-09-19T17:15:00;3.00;;;2.10;;
19671;SDS011;9983;51.114;13.788;2023-09-19T17:20:00;2.17;;;2.08;;
19671;SDS011;9983;51.114;13.788;2023-09-19T17:25:00;3.17;;;2.22;;
19671;SDS011;9983;51.114;13.788;2023-09-19T17:30:01;3.53;;;2.08;;
19671;SDS011;9983;51.114;13.788;2023-09-19T17:35:02;2.53;;;2.33;;
19671;SDS011;9983;51.114;13.788;2023-09-19T17:40:03;3.95;;;2.10;;
19671;SDS011;9983;51.114;13.788;2023-09-19T17:45:04;2.47;;;1.90;;
19671;SDS011;9983;51.114;13.788;2023-09-19T17:50:05;3.53;;;2.13;;
19671;SDS011;9983;51.114;13.788;2023-09-19T17:55:07;6.47;;;2.28;;
19671;SDS011;9983;51.114;13.788;2023-09-19T18:00:12;2.35;;;2.15;;
19671;SDS011;9983;51.114;13.788;2023-09-19T18:05:13;3.03;;;2.20;;
19671;SDS011;9983;51.114;13.788;2023-09-19T18:10:16;3.17;;;2.30;;
19671;SDS011;9983;51.114;13.788;2023-09-19T18:15:16;3.20;;;2.55;;
19671;SDS011;9983;51.114;13.788;2023-09-19T18:20:17;3.25;;;2.30;;
19671;SDS011;9983;51.114;13.788;2023-09-19T18:25:19;3.92;;;2.28;;
19671;SDS011;9983;51.114;13.788;2023-09-19T18:30:19;2.97;;;2.30;;
19671;SDS011;9983;51.114;13.788;2023-09-19T18:35:21;4.35;;;2.40;;
19671;SDS011;9983;51.114;13.788;2023-09-19T18:40:23;4.03;;;2.60;;
19671;SDS011;9983;51.114;13.788;2023-09-19T18:45:24;2.40;;;2.10;;
19671;SDS011;9983;51.114;13.788;2023-09-19T18:50:25;5.63;;;2.33;;
19671;SDS011;9983;51.114;13.788;2023-09-19T18:55:26;3.28;;;2.10;;
19671;SDS011;9983;51.114;13.788;2023-09-19T19:00:26;4.82;;;2.60;;
19671;SDS011;9983;51.114;13.788;2023-09-19T19:05:30;3.92;;;2.47;;
19671;SDS011;9983;51.114;13.788;2023-09-19T19:10:32;2.88;;;2.50;;
19671;SDS011;9983;51.114;13.788;2023-09-19T19:15:33;3.17;;;2.88;;
19671;SDS011;9983;51.114;13.788;2023-09-19T19:20:33;4.85;;;2.67;;
19671;SDS011;9983;51.114;13.788;2023-09-19T19:25:45;5.43;;;2.60;;
19671;SDS011;9983;51.114;13.788;2023-09-19T19:30:47;3.45;;;2.30;;
19671;SDS011;9983;51.114;13.788;2023-09-19T19:35:48;4.13;;;2.72;;
19671;SDS011;9983;51.114;13.788;2023-09-19T19:40:56;3.80;;;2.80;;
19671;SDS011;9983;51.114;13.788;2023-09-19T19:45:57;3.65;;;2.20;;
19671;SDS011;9983;51.114;13.788;2023-09-19T19:50:58;3.78;;;2.78;;
19671;SDS011;9983;51.114;13.788;2023-09-19T19:55:59;3.15;;;2.40;;
19671;SDS011;9983;51.114;13.788;2023-09-19T20:00:59;4.13;;;2.58;;
19671;SDS011;9983;51.114;13.788;2023-09-19T20:06:00;3.20;;;2.43;;
19671;SDS011;9983;51.114;13.788;2023-09-19T20:11:04;4.50;;;2.22;;
19671;SDS011;9983;51.114;13.788;2023-09-19T20:16:06;5.95;;;2.75;;
19671;SDS011;9983;51.114;13.788;2023-09-19T20:21:08;2.83;;;2.60;;
19671;SDS011;9983;51.114;13.788;2023-09-19T20:26:15;4.45;;;2.80;;
19671;SDS011;9983;51.114;13.788;2023-09-19T20:31:15;5.70;;;2.60;;
19671;SDS011;9983;51.114;13.788;2023-09-19T20:36:16;4.00;;;2.42;;
19671;SDS011;9983;51.114;13.788;2023-09-19T20:41:16;3.00;;;2.60;;
19671;SDS011;9983;51.114;13.788;2023-09-19T20:46:16;4.90;;;2.58;;
19671;SDS011;9983;51.114;13.788;2023-09-19T20:51:17;7.37;;;2.87;;
19671;SDS011;9983;51.114;13.788;2023-09-19T20:56:24;3.92;;;2.75;;
19671;SDS011;9983;51.114;13.788;2023-09-19T21:01:25;3.05;;;2.42;;
19671;SDS011;9983;51.114;13.788;2023-09-19T21:06:26;3.25;;;2.83;;
19671;SDS011;9983;51.114;13.788;2023-09-19T21:11:26;4.05;;;3.03;;
19671;SDS011;9983;51.114;13.788;2023-09-19T21:16:27;3.95;;;2.63;;
19671;SDS011;9983;51.114;13.788;2023-09-19T21:21:27;5.82;;;3.03;;
19671;SDS011;9983;51.114;13.788;2023-09-19T21:26:28;4.70;;;2.65;;
19671;SDS011;9983;51.114;13.788;2023-09-19T21:31:28;5.33;;;2.50;;
19671;SDS011;9983;51.114;13.788;2023-09-19T21:36:28;3.33;;;2.42;;
19671;SDS011;9983;51.114;13.788;2023-09-19T21:41:32;4.45;;;2.55;;
19671;SDS011;9983;51.114;13.788;2023-09-19T21:46:33;3.53;;;2.60;;
19671;SDS011;9983;51.114;13.788;2023-09-19T21:51:33;4.30;;;2.42;;
19671;SDS011;9983;51.114;13.788;2023-09-19T21:56:34;4.28;;;2.60;;
19671;SDS011;9983;51.114;13.788;2023-09-19T22:01:34;4.40;;;2.58;;
19671;SDS011;9983;51.114;13.788;2023-09-19T22:06:34;5.05;;;2.28;;
19671;SDS011;9983;51.114;13.788;2023-09-19T22:11:35;5.10;;;2.70;;
19671;SDS011;9983;51.114;13.788;2023-09-19T22:16:35;2.85;;;2.53;;
19671;SDS011;9983;51.114;13.788;2023-09-19T22:21:38;3.28;;;2.25;;
19671;SDS011;9983;51.114;13.788;2023-09-19T22:26:38;4.18;;;2.38;;
19671;SDS011;9983;51.114;13.788;2023-09-19T22:31:42;2.97;;;2.50;;
19671;SDS011;9983;51.114;13.788;2023-09-19T22:36:42;3.63;;;2.40;;
19671;SDS011;9983;51.114;13.788;2023-09-19T22:41:43;2.92;;;1.95;;
19671;SDS011;9983;51.114;13.788;2023-09-19T22:46:45;4.38;;;2.33;;
19671;SDS011;9983;51.114;13.788;2023-09-19T22:51:46;3.40;;;2.33;;
19671;SDS011;9983;51.114;13.788;2023-09-19T22:56:53;4.57;;;2.28;;
19671;SDS011;9983;51.114;13.788;2023-09-19T23:01:54;3.25;;;2.30;;
19671;SDS011;9983;51.114;13.788;2023-09-19T23:06:57;3.50;;;2.20;;
19671;SDS011;9983;51.114;13.788;2023-09-19T23:12:05;3.78;;;2.63;;
19671;SDS011;9983;51.114;13.788;2023-09-19T23:17:06;2.40;;;2.20;;
19671;SDS011;9983;51.114;13.788;2023-09-19T23:22:14;2.67;;;2.38;;
19671;SDS011;9983;51.114;13.788;2023-09-19T23:27:17;3.25;;;2.25;;
19671;SDS011;9983;51.114;13.788;2023-09-19T23:32:33;2.40;;;2.20;;
19671;SDS011;9983;51.114;13.788;2023-09-19T23:37:33;2.47;;;2.28;;
19671;SDS011;9983;51.114;13.788;2023-09-19T23:42:35;2.38;;;2.00;;
19671;SDS011;9983;51.114;13.788;2023-09-19T23:47:35;2.75;;;2.17;;
19671;SDS011;9983;51.114;13.788;2023-09-19T23:52:35;2.90;;;2.20;;
19671;SDS011;9983;51.114;13.788;2023-09-19T23:57:36;4.63;;;2.50;;
